Time;durP1;ratioP1;P1;durP2;ratioP2;P2;SDS_P1;SDS_P2;PMS_P1;PMS_P2;Temp;Humidity;BMP_temperature;BMP_pressure;BME280_temperature;BME280_humidity;BME280_pressure;Samples;Min_cycle;Max_cycle;Signal;HPM_P1;HPM_P2
2021/07/08 00:01:57;;;;;;;5.30;4.35;;;18.60;99.40;;;;;;4991280;28;20031;-33
2021/07/08 00:04:23;;;;;;;6.32;4.55;;;18.60;99.40;;;;;;4992116;28;20461;-33
2021/07/08 00:06:48;;;;;;;5.80;4.47;;;18.60;99.40;;;;;;4990969;28;20034;-33
2021/07/08 00:09:16;;;;;;;5.15;4.65;;;18.60;99.40;;;;;;4991694;28;20038;-34
2021/07/08 00:11:42;;;;;;;5.22;4.10;;;18.50;99.40;;;;;;4992092;28;20114;-33
2021/07/08 00:14:08;;;;;;;5.55;4.18;;;18.50;99.40;;;;;;4991942;28;20110;-33
2021/07/08 00:16:36;;;;;;;4.93;4.30;;;18.50;99.50;;;;;;4992333;28;20026;-33
2021/07/08 00:19:03;;;;;;;5.93;4.40;;;18.50;99.60;;;;;;4991309;28;20034;-34
2021/07/08 00:21:28;;;;;;;5.63;4.50;;;18.50;99.60;;;;;;4991678;28;20105;-34
2021/07/08 00:23:54;;;;;;;4.63;4.15;;;18.50;99.60;;;;;;4991796;28;20101;-33
2021/07/08 00:26:20;;;;;;;6.63;4.45;;;18.50;99.60;;;;;;4992195;28;20049;-33
2021/07/08 00:28:46;;;;;;;5.13;4.63;;;18.50;99.60;;;;;;4991627;28;20018;-33
2021/07/08 00:31:12;;;;;;;4.93;4.32;;;18.50;99.60;;;;;;4991063;28;20030;-33
2021/07/08 00:33:38;;;;;;;5.53;4.50;;;18.40;99.60;;;;;;4992313;28;20359;-33
2021/07/08 00:36:04;;;;;;;6.97;4.85;;;18.40;99.70;;;;;;4990292;28;20026;-33
2021/07/08 00:38:31;;;;;;;6.20;4.75;;;18.40;99.70;;;;;;4991793;28;20545;-33
2021/07/08 00:40:57;;;;;;;6.07;5.45;;;18.50;99.70;;;;;;4991148;28;20238;-33
2021/07/08 00:43:23;;;;;;;8.52;5.13;;;18.50;99.70;;;;;;4992088;28;20134;-33
2021/07/08 00:45:49;;;;;;;5.38;4.85;;;18.50;99.60;;;;;;4991725;28;20030;-33
2021/07/08 00:48:14;;;;;;;5.55;4.43;;;18.50;99.60;;;;;;4991170;28;20022;-33
2021/07/08 00:50:43;;;;;;;6.55;5.13;;;18.50;99.70;;;;;;4990627;28;20034;-33
2021/07/08 00:53:16;;;;;;;5.13;4.63;;;18.50;99.70;;;;;;4990896;28;20022;-33
2021/07/08 00:55:44;;;;;;;5.47;4.50;;;18.50;99.70;;;;;;4990665;28;20033;-34
2021/07/08 00:58:14;;;;;;;4.88;4.38;;;18.50;99.70;;;;;;4991172;28;20070;-33
2021/07/08 01:00:39;;;;;;;4.65;4.25;;;18.50;99.70;;;;;;4991398;28;20019;-33
2021/07/08 01:03:10;;;;;;;4.60;4.20;;;18.50;99.70;;;;;;4990771;28;20377;-33
2021/07/08 01:05:43;;;;;;;5.00;4.60;;;18.50;99.70;;;;;;4991770;28;20034;-33
2021/07/08 01:08:11;;;;;;;6.05;4.63;;;18.50;99.80;;;;;;4983765;28;20574;-33
2021/07/08 01:10:37;;;;;;;6.57;4.50;;;18.50;99.70;;;;;;4990606;28;20100;-33
2021/07/08 01:13:03;;;;;;;5.53;4.75;;;18.50;99.70;;;;;;4991106;28;20054;-33
2021/07/08 01:15:29;;;;;;;5.15;4.65;;;18.50;99.70;;;;;;4991214;28;20082;-34
2021/07/08 01:17:55;;;;;;;4.80;4.40;;;18.50;99.70;;;;;;4989700;28;20399;-33
2021/07/08 01:20:24;;;;;;;4.55;4.15;;;18.60;99.70;;;;;;4991333;28;20574;-33
2021/07/08 01:22:57;;;;;;;4.50;4.10;;;18.60;99.60;;;;;;4990508;28;20216;-33
2021/07/08 01:25:24;;;;;;;4.90;4.35;;;18.60;99.60;;;;;;4991337;28;20022;-33
2021/07/08 01:27:51;;;;;;;5.32;4.70;;;18.60;99.70;;;;;;4990324;28;20026;-34
2021/07/08 01:30:18;;;;;;;5.47;4.38;;;18.50;99.70;;;;;;4990309;28;20038;-33
2021/07/08 01:32:44;;;;;;;8.25;4.72;;;18.50;99.80;;;;;;4990568;28;20113;-34
2021/07/08 01:35:11;;;;;;;6.40;4.70;;;18.50;99.80;;;;;;4990695;28;20387;-33
2021/07/08 01:37:37;;;;;;;5.68;4.90;;;18.40;99.80;;;;;;4990051;28;20025;-33
2021/07/08 01:40:08;;;;;;;5.82;4.55;;;18.40;99.90;;;;;;4990434;28;20036;-33
2021/07/08 01:42:34;;;;;;;4.97;4.47;;;18.40;99.90;;;;;;4990096;28;20471;-33
2021/07/08 01:45:00;;;;;;;6.68;4.72;;;18.40;99.90;;;;;;4982140;28;20129;-33
2021/07/08 01:47:25;;;;;;;7.03;4.63;;;18.40;99.90;;;;;;4990346;28;20526;-33
2021/07/08 01:49:52;;;;;;;6.13;4.93;;;18.40;99.90;;;;;;4990332;28;20041;-36
2021/07/08 01:52:17;;;;;;;4.63;4.22;;;18.40;99.90;;;;;;4990131;28;20057;-33
2021/07/08 01:54:43;;;;;;;6.72;4.68;;;18.40;99.90;;;;;;4989584;28;20046;-33
2021/07/08 01:57:10;;;;;;;4.85;4.45;;;18.40;99.90;;;;;;4990460;28;20466;-33
2021/07/08 01:59:35;;;;;;;5.38;4.88;;;18.40;99.90;;;;;;4990199;28;20031;-33
2021/07/08 02:02:01;;;;;;;6.25;4.82;;;18.40;99.90;;;;;;4989931;28;20029;-33
2021/07/08 02:04:27;;;;;;;4.97;4.47;;;18.40;99.90;;;;;;4990025;28;20484;-33
2021/07/08 02:06:52;;;;;;;6.03;5.07;;;18.40;99.90;;;;;;4989064;28;20022;-33
2021/07/08 02:09:18;;;;;;;5.78;5.22;;;18.40;99.90;;;;;;4989528;28;20046;-34
2021/07/08 02:11:44;;;;;;;4.70;4.20;;;18.40;99.90;;;;;;4989641;28;20023;-33
2021/07/08 02:14:10;;;;;;;6.20;4.60;;;18.40;99.90;;;;;;4989470;28;20026;-33
2021/07/08 02:16:36;;;;;;;5.57;4.30;;;18.40;99.90;;;;;;4990036;28;20463;-33
2021/07/08 02:19:05;;;;;;;4.40;4.07;;;18.40;99.90;;;;;;4989076;28;20442;-33
2021/07/08 02:21:30;;;;;;;6.13;4.47;;;18.40;99.90;;;;;;4990451;28;20054;-33
2021/07/08 02:23:56;;;;;;;4.72;4.25;;;18.40;99.90;;;;;;4989620;28;20060;-33
2021/07/08 02:26:22;;;;;;;5.38;4.80;;;18.30;99.90;;;;;;4989869;28;20383;-33
2021/07/08 02:28:47;;;;;;;6.85;4.47;;;18.30;99.90;;;;;;4992312;28;20466;-34
2021/07/08 02:31:13;;;;;;;4.88;4.40;;;18.30;99.90;;;;;;4989173;28;20096;-33
2021/07/08 02:33:39;;;;;;;4.72;4.22;;;18.30;99.90;;;;;;4989358;28;20020;-33
2021/07/08 02:36:06;;;;;;;5.10;4.60;;;18.30;99.90;;;;;;4988981;28;20034;-33
2021/07/08 02:38:32;;;;;;;5.20;4.57;;;18.20;99.90;;;;;;4990227;28;20025;-34
2021/07/08 02:40:58;;;;;;;5.22;4.72;;;18.20;99.90;;;;;;4988723;28;20093;-33
2021/07/08 02:43:24;;;;;;;10.63;5.03;;;18.10;99.90;;;;;;4989533;28;20434;-33
2021/07/08 02:45:50;;;;;;;5.60;4.90;;;18.10;99.90;;;;;;4989450;28;20478;-33
2021/07/08 02:48:18;;;;;;;5.00;4.60;;;18.00;99.90;;;;;;4989145;28;20054;-33
2021/07/08 02:50:46;;;;;;;6.03;4.88;;;18.00;99.90;;;;;;4989239;28;20064;-33
2021/07/08 02:53:13;;;;;;;6.88;4.95;;;18.00;99.90;;;;;;4991172;28;20022;-33
2021/07/08 02:55:40;;;;;;;7.43;4.97;;;18.00;99.90;;;;;;4993417;28;20084;-33
2021/07/08 02:58:06;;;;;;;5.43;4.90;;;18.00;99.90;;;;;;4993530;28;20033;-33
2021/07/08 03:00:32;;;;;;;5.93;5.20;;;18.00;99.90;;;;;;4993815;28;20034;-33
2021/07/08 03:02:58;;;;;;;5.82;5.22;;;18.00;99.90;;;;;;4993072;28;20041;-34
2021/07/08 03:05:24;;;;;;;6.80;5.53;;;18.00;99.90;;;;;;4993145;28;20481;-33
2021/07/08 03:07:50;;;;;;;6.18;5.57;;;18.00;99.90;;;;;;4993013;28;20019;-33
2021/07/08 03:10:19;;;;;;;6.13;5.07;;;18.00;99.90;;;;;;4992561;28;20453;-33
2021/07/08 03:12:44;;;;;;;6.72;4.97;;;18.00;99.90;;;;;;4993517;28;20034;-33
2021/07/08 03:15:12;;;;;;;5.80;4.93;;;18.10;99.90;;;;;;4992529;28;20038;-33
2021/07/08 03:17:38;;;;;;;5.50;4.97;;;18.20;99.90;;;;;;4993279;28;20486;-33
2021/07/08 03:20:07;;;;;;;6.07;4.93;;;18.10;99.90;;;;;;4992327;28;20045;-33
2021/07/08 03:22:32;;;;;;;7.18;5.55;;;18.10;99.90;;;;;;4992790;28;20492;-33
2021/07/08 03:24:58;;;;;;;5.47;4.95;;;18.20;99.90;;;;;;4992538;28;20034;-33
2021/07/08 03:27:23;;;;;;;5.90;5.28;;;18.10;99.90;;;;;;4992335;28;20046;-33
2021/07/08 03:29:49;;;;;;;6.57;5.28;;;18.20;99.90;;;;;;4991850;28;20030;-33
2021/07/08 03:32:14;;;;;;;5.40;4.90;;;18.20;99.90;;;;;;4992697;28;20535;-34
2021/07/08 03:34:41;;;;;;;5.75;5.18;;;18.20;99.90;;;;;;4993135;28;20034;-33
2021/07/08 03:37:06;;;;;;;6.00;5.40;;;18.20;99.90;;;;;;4991983;28;20507;-34
2021/07/08 03:39:32;;;;;;;5.90;5.25;;;18.20;99.90;;;;;;4992773;28;20026;-33
2021/07/08 03:41:58;;;;;;;7.20;5.30;;;18.30;99.90;;;;;;4992520;28;20030;-33
2021/07/08 03:44:24;;;;;;;6.40;5.28;;;18.30;99.90;;;;;;4992329;28;20366;-33
2021/07/08 03:46:49;;;;;;;5.57;4.97;;;18.40;99.90;;;;;;4991930;28;20061;-33
2021/07/08 03:49:15;;;;;;;5.43;4.82;;;18.30;99.90;;;;;;4992824;28;20539;-33
2021/07/08 03:51:41;;;;;;;5.88;5.28;;;18.30;99.90;;;;;;4991669;28;20030;-33
2021/07/08 03:54:07;;;;;;;6.13;5.50;;;18.40;99.90;;;;;;4992363;28;20073;-33
2021/07/08 03:56:32;;;;;;;5.90;5.10;;;18.40;99.90;;;;;;4992899;28;20031;-34
2021/07/08 03:58:58;;;;;;;5.95;4.60;;;18.50;99.90;;;;;;4991188;28;20033;-33
2021/07/08 04:01:25;;;;;;;5.63;5.13;;;18.40;99.90;;;;;;4992824;28;20380;-34
2021/07/08 04:03:51;;;;;;;5.10;4.60;;;18.50;99.90;;;;;;4992244;28;20109;-33
2021/07/08 04:06:17;;;;;;;5.25;4.50;;;18.50;99.90;;;;;;4991762;28;20169;-33
2021/07/08 04:08:43;;;;;;;5.70;4.53;;;18.40;99.90;;;;;;4991777;28;20034;-33
2021/07/08 04:11:08;;;;;;;5.10;4.60;;;18.50;99.90;;;;;;4992294;28;20026;-34
2021/07/08 04:13:34;;;;;;;5.13;4.40;;;18.40;99.90;;;;;;4991719;28;20015;-34
2021/07/08 04:16:00;;;;;;;4.97;4.57;;;18.50;99.90;;;;;;4991915;28;20034;-34
2021/07/08 04:18:29;;;;;;;7.28;4.80;;;18.40;99.90;;;;;;4992622;28;20135;-33
2021/07/08 04:20:55;;;;;;;6.13;4.72;;;18.40;99.90;;;;;;4990888;28;20038;-34
2021/07/08 04:23:23;;;;;;;4.70;4.30;;;18.40;99.90;;;;;;4992316;28;20422;-34
2021/07/08 04:25:49;;;;;;;5.63;4.30;;;18.40;99.90;;;;;;4990974;28;20445;-33
2021/07/08 04:28:15;;;;;;;6.60;4.68;;;18.50;99.90;;;;;;4991566;28;20521;-33
2021/07/08 04:30:42;;;;;;;6.30;4.13;;;18.60;99.90;;;;;;4990793;28;20089;-33
2021/07/08 04:33:08;;;;;;;4.85;4.35;;;18.60;99.90;;;;;;4990563;28;20025;-35
2021/07/08 04:35:38;;;;;;;4.72;4.22;;;18.70;99.90;;;;;;4992149;28;20073;-33
2021/07/08 04:38:06;;;;;;;4.80;4.30;;;18.70;99.90;;;;;;4991046;28;20014;-33
2021/07/08 04:40:32;;;;;;;6.35;4.43;;;18.70;99.90;;;;;;4990058;28;20038;-33
2021/07/08 04:42:58;;;;;;;5.30;4.10;;;18.70;99.90;;;;;;4990933;28;20010;-33
2021/07/08 04:45:24;;;;;;;4.78;4.38;;;18.70;99.90;;;;;;4991330;28;20023;-33
2021/07/08 04:47:50;;;;;;;6.50;4.38;;;18.80;99.90;;;;;;4991074;28;20025;-33
2021/07/08 04:50:18;;;;;;;5.63;5.03;;;18.70;99.90;;;;;;4991333;28;20363;-33
2021/07/08 04:52:45;;;;;;;5.22;4.68;;;18.70;99.90;;;;;;4990529;28;20021;-33
2021/07/08 04:55:13;;;;;;;5.25;4.40;;;18.70;99.90;;;;;;4990626;28;20022;-33
2021/07/08 04:57:39;;;;;;;5.40;4.88;;;18.70;99.90;;;;;;4991119;28;20066;-33
2021/07/08 05:00:08;;;;;;;5.55;5.05;;;18.80;99.90;;;;;;4990871;28;20058;-33
2021/07/08 05:02:38;;;;;;;5.80;5.07;;;18.80;99.90;;;;;;4991641;28;20030;-33
2021/07/08 05:05:07;;;;;;;6.95;5.03;;;18.80;99.90;;;;;;4990491;28;20034;-33
2021/07/08 05:07:33;;;;;;;5.38;4.88;;;18.80;99.90;;;;;;4991613;28;20079;-33
2021/07/08 05:09:58;;;;;;;6.72;4.47;;;18.80;99.90;;;;;;4988530;28;20077;-33
2021/07/08 05:12:24;;;;;;;7.60;4.78;;;18.70;99.90;;;;;;4991057;28;20049;-33
2021/07/08 05:14:50;;;;;;;5.07;4.57;;;18.70;99.90;;;;;;4990893;28;20570;-33
2021/07/08 05:17:15;;;;;;;6.63;5.47;;;18.80;99.90;;;;;;4990174;28;20416;-33
2021/07/08 05:19:41;;;;;;;5.97;5.38;;;18.80;99.90;;;;;;4990805;28;20038;-33
2021/07/08 05:22:06;;;;;;;8.23;5.82;;;18.90;99.90;;;;;;4989736;28;20034;-33
2021/07/08 05:24:33;;;;;;;5.90;5.30;;;19.00;99.90;;;;;;4991344;28;20296;-34
2021/07/08 05:26:58;;;;;;;9.05;6.20;;;19.10;99.90;;;;;;4990611;28;20022;-33
2021/07/08 05:29:25;;;;;;;5.90;5.28;;;19.20;99.90;;;;;;4990275;28;20971;-33
2021/07/08 05:31:51;;;;;;;6.00;5.40;;;19.20;99.90;;;;;;4990945;28;20019;-33
2021/07/08 05:34:17;;;;;;;6.10;5.50;;;19.20;99.90;;;;;;4989738;28;20210;-33
2021/07/08 05:36:43;;;;;;;6.85;5.47;;;19.20;99.90;;;;;;4989587;28;20063;-33
2021/07/08 05:39:08;;;;;;;7.95;5.97;;;19.20;99.90;;;;;;4990918;28;20073;-33
2021/07/08 05:41:34;;;;;;;6.88;6.00;;;19.30;99.90;;;;;;4990692;28;20030;-33
2021/07/08 05:44:00;;;;;;;6.63;6.03;;;19.30;99.90;;;;;;4989640;28;20030;-33
2021/07/08 05:46:26;;;;;;;6.90;6.20;;;19.30;99.90;;;;;;4988130;28;20022;-33
2021/07/08 05:48:53;;;;;;;6.72;6.00;;;19.40;99.90;;;;;;4990196;28;20037;-33
2021/07/08 05:51:18;;;;;;;8.52;6.63;;;19.40;99.90;;;;;;4989989;28;20097;-33
2021/07/08 05:53:44;;;;;;;6.95;6.28;;;19.50;99.90;;;;;;4990616;28;20425;-33
2021/07/08 05:56:09;;;;;;;7.40;6.70;;;19.50;99.90;;;;;;4989494;28;20087;-32
2021/07/08 05:58:35;;;;;;;7.72;6.95;;;19.60;99.90;;;;;;4983994;28;20088;-33
2021/07/08 06:01:01;;;;;;;8.77;6.70;;;19.70;99.90;;;;;;4987320;28;20030;-33
2021/07/08 06:03:26;;;;;;;7.20;6.45;;;19.70;99.90;;;;;;4987900;28;20026;-33
2021/07/08 06:05:52;;;;;;;7.00;6.30;;;19.70;99.90;;;;;;4988590;28;20025;-33
2021/07/08 06:08:18;;;;;;;9.13;6.60;;;19.80;99.90;;;;;;4989277;28;20158;-33
2021/07/08 06:10:44;;;;;;;10.43;8.18;;;19.70;99.90;;;;;;4988453;28;20046;-33
2021/07/08 06:13:10;;;;;;;8.77;7.88;;;19.70;99.90;;;;;;4987912;28;20014;-33
2021/07/08 06:15:36;;;;;;;7.07;6.13;;;19.70;99.90;;;;;;4989274;28;20477;-33
2021/07/08 06:18:02;;;;;;;6.55;5.95;;;19.70;99.90;;;;;;4988862;28;20010;-32
2021/07/08 06:20:28;;;;;;;7.47;6.78;;;19.60;99.90;;;;;;4988859;28;20049;-32
2021/07/08 06:22:54;;;;;;;7.95;6.68;;;19.40;99.90;;;;;;4988370;28;20682;-32
2021/07/08 06:25:19;;;;;;;8.13;7.00;;;19.20;99.90;;;;;;4989181;28;20023;-31
2021/07/08 06:27:45;;;;;;;8.90;7.22;;;19.00;99.90;;;;;;4988218;28;20018;-33
2021/07/08 06:30:12;;;;;;;8.02;6.78;;;18.90;99.90;;;;;;4989902;28;20029;-31
2021/07/08 06:32:38;;;;;;;7.68;6.43;;;18.80;99.90;;;;;;4988369;28;20026;-33
2021/07/08 06:35:07;;;;;;;7.18;6.47;;;18.80;99.90;;;;;;4988765;28;20351;-33
2021/07/08 06:37:33;;;;;;;7.50;6.72;;;18.80;99.90;;;;;;4989418;28;20099;-33
2021/07/08 06:39:59;;;;;;;7.15;6.43;;;18.80;99.90;;;;;;4987765;28;20113;-34
2021/07/08 06:42:24;;;;;;;7.63;6.25;;;18.80;99.90;;;;;;4988469;28;20374;-34
2021/07/08 06:44:50;;;;;;;6.47;5.85;;;18.80;99.90;;;;;;4988924;28;20102;-33
2021/07/08 06:47:18;;;;;;;7.18;6.47;;;18.90;99.90;;;;;;4988245;28;20031;-33
2021/07/08 06:49:44;;;;;;;7.85;7.00;;;18.90;99.90;;;;;;4989459;28;20458;-33
2021/07/08 06:52:11;;;;;;;6.50;5.90;;;18.90;99.90;;;;;;4988965;28;21738;-33
2021/07/08 06:54:36;;;;;;;8.73;7.30;;;19.00;99.90;;;;;;4989140;28;20030;-33
2021/07/08 06:57:02;;;;;;;7.18;6.45;;;19.00;99.90;;;;;;4989146;28;20018;-33
2021/07/08 06:59:28;;;;;;;9.80;7.10;;;19.10;99.90;;;;;;4978611;28;20414;-33
2021/07/08 07:01:54;;;;;;;8.63;7.70;;;19.00;99.90;;;;;;4987525;28;20022;-34
2021/07/08 07:04:22;;;;;;;9.82;8.82;;;19.10;99.90;;;;;;4989089;28;20023;-33
2021/07/08 07:06:48;;;;;;;9.13;8.20;;;19.10;99.90;;;;;;4989219;28;20370;-33
2021/07/08 07:09:14;;;;;;;10.20;8.60;;;19.10;99.90;;;;;;4988054;28;20074;-33
2021/07/08 07:11:40;;;;;;;9.63;8.73;;;19.10;99.90;;;;;;4989408;28;20512;-33
2021/07/08 07:14:05;;;;;;;9.82;8.75;;;19.20;99.90;;;;;;4988828;28;20547;-33
2021/07/08 07:16:31;;;;;;;9.02;8.13;;;19.20;99.90;;;;;;4988088;28;20026;-33
2021/07/08 07:18:57;;;;;;;8.82;7.38;;;19.30;99.90;;;;;;4988536;28;20116;-33
2021/07/08 07:21:22;;;;;;;10.20;7.47;;;19.40;99.90;;;;;;4988896;28;20049;-32
2021/07/08 07:23:49;;;;;;;8.27;7.40;;;19.50;99.90;;;;;;4988564;28;20373;-33
2021/07/08 07:26:19;;;;;;;9.07;8.02;;;19.60;99.90;;;;;;4988815;28;20038;-33
2021/07/08 07:28:48;;;;;;;9.60;8.25;;;19.60;99.90;;;;;;4988055;28;20026;-33
2021/07/08 07:31:14;;;;;;;10.10;7.80;;;19.70;99.80;;;;;;4988717;28;20034;-33
2021/07/08 07:33:42;;;;;;;8.32;6.85;;;19.80;99.70;;;;;;4988886;28;20450;-33
2021/07/08 07:36:08;;;;;;;8.35;6.57;;;19.80;99.70;;;;;;4987983;28;20077;-32
2021/07/08 07:38:33;;;;;;;7.47;6.35;;;19.90;99.60;;;;;;4989033;28;20022;-33
2021/07/08 07:40:59;;;;;;;9.18;6.82;;;19.90;99.50;;;;;;4992057;28;20479;-33
2021/07/08 07:43:24;;;;;;;9.40;7.47;;;20.10;99.40;;;;;;4992385;28;20050;-33
2021/07/08 07:45:50;;;;;;;6.82;6.10;;;20.30;99.20;;;;;;4992202;28;20105;-33
2021/07/08 07:48:17;;;;;;;7.07;6.22;;;20.40;99.00;;;;;;4992080;28;20019;-33
2021/07/08 07:50:42;;;;;;;7.35;5.70;;;20.60;98.70;;;;;;4991676;28;20084;-33
2021/07/08 07:53:08;;;;;;;6.28;5.60;;;20.70;98.50;;;;;;4992162;28;20034;-33
2021/07/08 07:55:33;;;;;;;6.95;5.80;;;20.90;98.30;;;;;;4992099;28;20030;-35
2021/07/08 07:58:01;;;;;;;9.77;6.05;;;20.90;98.30;;;;;;4991863;28;20029;-32
2021/07/08 08:00:28;;;;;;;7.05;5.85;;;20.90;97.80;;;;;;4991322;28;20030;-32
2021/07/08 08:02:54;;;;;;;5.65;5.15;;;20.90;98.00;;;;;;4991898;28;20085;-32
2021/07/08 08:10:42;;;;;;;5.88;4.70;;;21.20;97.60;;;;;;4991562;28;20057;-33
2021/07/08 08:13:09;;;;;;;5.15;3.95;;;21.40;97.60;;;;;;4991106;28;20549;-33
2021/07/08 08:15:34;;;;;;;7.18;5.07;;;21.50;97.30;;;;;;4992839;28;20022;-33
2021/07/08 08:18:01;;;;;;;6.00;4.43;;;21.70;97.20;;;;;;4991086;28;20162;-33
2021/07/08 08:20:28;;;;;;;6.28;4.40;;;21.90;97.00;;;;;;4991923;28;20031;-33
2021/07/08 08:22:53;;;;;;;5.72;4.45;;;22.00;96.70;;;;;;4991523;28;20041;-33
2021/07/08 08:25:19;;;;;;;6.05;4.13;;;22.00;96.70;;;;;;4991449;28;20026;-33
2021/07/08 08:27:44;;;;;;;5.40;4.40;;;22.00;96.70;;;;;;4987849;28;20354;-33
2021/07/08 08:30:14;;;;;;;5.95;4.97;;;22.00;96.60;;;;;;4984622;28;20026;-32
2021/07/08 08:32:42;;;;;;;5.60;4.90;;;22.00;96.70;;;;;;4987755;28;20146;-32
2021/07/08 08:35:08;;;;;;;5.30;4.80;;;21.90;96.30;;;;;;4991007;28;20027;-33
2021/07/08 08:37:34;;;;;;;8.60;5.68;;;21.80;96.50;;;;;;4990709;28;20031;-33
2021/07/08 08:40:01;;;;;;;5.88;5.20;;;21.80;96.10;;;;;;4990675;28;20034;-33
2021/07/08 08:42:27;;;;;;;5.60;4.95;;;21.70;96.30;;;;;;4991760;28;20030;-32
2021/07/08 08:44:54;;;;;;;8.48;5.60;;;21.70;96.40;;;;;;4991358;28;20447;-32
2021/07/08 08:47:22;;;;;;;8.23;5.25;;;21.70;95.60;;;;;;4990423;28;20062;-33
2021/07/08 08:49:48;;;;;;;5.35;4.18;;;21.70;95.90;;;;;;4990605;28;20429;-32
2021/07/08 08:52:14;;;;;;;5.60;4.53;;;21.80;96.00;;;;;;4989337;28;20029;-33
2021/07/08 08:54:41;;;;;;;3.90;3.30;;;21.80;95.80;;;;;;4990912;28;20030;-33
2021/07/08 08:57:07;;;;;;;5.75;3.78;;;21.80;95.80;;;;;;4991259;28;20024;-32
2021/07/08 08:59:33;;;;;;;5.20;3.28;;;21.90;95.70;;;;;;4990987;28;20411;-32
2021/07/08 09:02:18;;;;;;;3.80;3.30;;;21.90;95.60;;;;;;4989805;28;20030;-35
2021/07/08 09:04:45;;;;;;;3.92;3.05;;;22.00;95.10;;;;;;4990995;28;20065;-35
2021/07/08 09:07:27;;;;;;;6.25;3.85;;;22.00;95.00;;;;;;4989801;28;20076;-32
2021/07/08 09:09:54;;;;;;;5.10;3.30;;;22.20;95.00;;;;;;4990621;28;20117;-32
2021/07/08 09:12:22;;;;;;;5.63;3.30;;;22.30;94.90;;;;;;4983119;28;20033;-32
2021/07/08 09:14:49;;;;;;;5.53;3.50;;;22.50;94.80;;;;;;4989673;28;20038;-32
2021/07/08 09:17:19;;;;;;;5.55;3.80;;;22.70;94.20;;;;;;4987261;28;20026;-32
2021/07/08 09:19:47;;;;;;;4.32;3.55;;;22.90;94.20;;;;;;4988192;28;20039;-32
2021/07/08 09:22:27;;;;;;;3.40;2.97;;;23.10;94.10;;;;;;4990195;28;20118;-32
2021/07/08 09:24:52;;;;;;;5.00;3.70;;;23.30;93.90;;;;;;4990328;28;20023;-32
2021/07/08 09:27:23;;;;;;;5.82;3.70;;;23.40;93.70;;;;;;4990348;28;20454;-32
2021/07/08 09:29:49;;;;;;;4.55;3.92;;;23.40;93.90;;;;;;4989752;28;20033;-32
2021/07/08 09:32:16;;;;;;;5.70;4.07;;;23.40;93.70;;;;;;4990542;28;20038;-32
2021/07/08 09:34:47;;;;;;;7.88;4.00;;;23.40;93.80;;;;;;4984478;28;20027;-32
2021/07/08 09:37:25;;;;;;;5.40;3.50;;;23.30;93.60;;;;;;4990899;28;20046;-32
2021/07/08 09:39:52;;;;;;;7.32;3.72;;;23.30;93.60;;;;;;4988469;28;20044;-32
2021/07/08 09:42:35;;;;;;;3.65;3.35;;;23.20;93.60;;;;;;4989869;28;20089;-32
2021/07/08 09:45:04;;;;;;;3.97;3.47;;;23.10;93.80;;;;;;4989945;28;20101;-34
2021/07/08 09:47:30;;;;;;;5.63;3.42;;;23.10;93.90;;;;;;4990568;28;20033;-34
2021/07/08 09:49:56;;;;;;;3.15;2.85;;;23.00;93.90;;;;;;4989172;28;20026;-33
2021/07/08 09:52:22;;;;;;;4.35;2.90;;;23.00;94.00;;;;;;4989237;28;20022;-31
2021/07/08 09:57:33;;;;;;;5.53;3.20;;;23.00;94.00;;;;;;4988744;28;20030;-32
2021/07/08 09:59:59;;;;;;;4.72;3.10;;;23.10;93.90;;;;;;4989344;28;20405;-32
2021/07/08 10:02:32;;;;;;;5.65;3.53;;;23.20;93.80;;;;;;4989744;28;20018;-31
2021/07/08 10:05:04;;;;;;;4.15;2.80;;;23.30;93.40;;;;;;4988697;28;20106;-32
2021/07/08 10:07:30;;;;;;;4.57;2.80;;;23.40;93.20;;;;;;4990591;28;20461;-32
2021/07/08 10:09:55;;;;;;;5.45;2.90;;;23.30;93.10;;;;;;4989804;28;20301;-33
2021/07/08 10:12:22;;;;;;;4.65;2.78;;;23.30;92.80;;;;;;4989816;28;20078;-33
2021/07/08 10:14:48;;;;;;;3.40;2.75;;;23.30;93.10;;;;;;4989541;28;20492;-33
2021/07/08 10:17:20;;;;;;;4.22;2.53;;;23.20;93.10;;;;;;4989626;28;20096;-33
2021/07/08 10:19:47;;;;;;;4.07;2.88;;;23.20;93.20;;;;;;4989032;28;20497;-33
2021/07/08 10:22:13;;;;;;;4.78;3.08;;;23.20;93.00;;;;;;4990118;28;20033;-33
2021/07/08 10:24:39;;;;;;;4.57;3.10;;;23.30;93.00;;;;;;4988099;28;20026;-33
2021/07/08 10:27:08;;;;;;;3.80;3.50;;;23.20;93.00;;;;;;4989002;28;20466;-33
2021/07/08 10:29:37;;;;;;;3.67;3.30;;;23.20;93.00;;;;;;4989529;28;20482;-31
2021/07/08 10:32:03;;;;;;;3.95;3.20;;;23.30;92.90;;;;;;4988904;28;20113;-33
2021/07/08 10:34:42;;;;;;;3.42;2.85;;;23.30;93.00;;;;;;4990150;28;20116;-33
2021/07/08 10:37:08;;;;;;;3.78;2.85;;;23.30;92.80;;;;;;4989571;28;20050;-33
2021/07/08 10:39:42;;;;;;;6.25;3.63;;;23.40;92.60;;;;;;4989114;28;20445;-31
2021/07/08 10:42:07;;;;;;;3.55;2.63;;;23.50;92.20;;;;;;4986716;28;20096;-32
2021/07/08 10:44:33;;;;;;;4.18;2.22;;;23.60;92.10;;;;;;4989550;28;20490;-31
2021/07/08 10:46:59;;;;;;;3.85;2.65;;;23.70;92.20;;;;;;4988861;28;20015;-32
2021/07/08 10:49:36;;;;;;;6.05;2.70;;;23.80;92.10;;;;;;4989710;28;20029;-33
2021/07/08 10:52:02;;;;;;;4.45;2.83;;;24.00;91.90;;;;;;4989080;28;20105;-35
2021/07/08 10:54:31;;;;;;;4.20;3.22;;;24.10;91.20;;;;;;4989630;28;20509;-32
2021/07/08 10:57:00;;;;;;;3.65;3.22;;;24.20;91.00;;;;;;4989038;28;20093;-32
2021/07/08 10:59:45;;;;;;;3.55;2.70;;;24.30;91.00;;;;;;4969943;28;20027;-32
2021/07/08 11:02:31;;;;;;;4.30;2.78;;;24.40;91.10;;;;;;4986457;28;20034;-34
2021/07/08 11:04:56;;;;;;;6.18;3.67;;;24.60;90.80;;;;;;4988744;28;20029;-32
2021/07/08 11:07:22;;;;;;;3.38;2.80;;;24.60;89.10;;;;;;4988557;28;20470;-33
2021/07/08 11:09:58;;;;;;;3.55;2.20;;;24.50;89.50;;;;;;4988758;28;20462;-33
2021/07/08 11:12:35;;;;;;;8.07;3.47;;;24.40;89.50;;;;;;4989587;28;20054;-33
2021/07/08 11:15:02;;;;;;;5.32;3.10;;;24.40;90.00;;;;;;4972775;28;20023;-33
2021/07/08 11:17:38;;;;;;;3.33;3.03;;;24.30;89.90;;;;;;4987973;28;20023;-33
2021/07/08 11:20:30;;;;;;;5.55;3.90;;;24.20;89.90;;;;;;4992553;28;20034;-33
2021/07/08 11:23:16;;;;;;;4.15;3.58;;;24.10;88.80;;;;;;4991023;28;20027;-33
2021/07/08 11:25:42;;;;;;;4.47;2.90;;;23.90;88.20;;;;;;4983878;28;20117;-33
2021/07/08 11:28:29;;;;;;;5.50;2.88;;;23.80;88.50;;;;;;4989893;28;20146;-33
2021/07/08 11:31:01;;;;;;;3.78;2.80;;;23.80;89.10;;;;;;4990414;28;21199;-33
2021/07/08 11:33:27;;;;;;;2.80;2.50;;;23.80;89.10;;;;;;4993327;28;20363;-32
2021/07/08 11:35:59;;;;;;;3.90;2.70;;;23.80;88.80;;;;;;4992399;28;20025;-32
2021/07/08 11:38:26;;;;;;;2.83;2.40;;;23.90;88.60;;;;;;4992891;28;20056;-31
2021/07/08 11:40:53;;;;;;;3.47;2.25;;;23.90;88.70;;;;;;4991996;28;20038;-32
2021/07/08 11:43:51;;;;;;;2.60;2.20;;;24.10;89.00;;;;;;4992004;28;20022;-32
2021/07/08 11:46:17;;;;;;;3.60;2.33;;;24.20;89.20;;;;;;4988980;28;20035;-32
2021/07/08 11:48:45;;;;;;;2.85;2.13;;;24.40;88.70;;;;;;4992362;28;20038;-31
2021/07/08 11:51:33;;;;;;;4.45;2.20;;;24.50;88.40;;;;;;4972752;28;20070;-33
2021/07/08 11:53:59;;;;;;;2.15;1.90;;;24.70;88.40;;;;;;4987201;28;20026;-32
2021/07/08 11:56:25;;;;;;;2.70;1.90;;;24.80;88.00;;;;;;4992131;28;20033;-31
2021/07/08 11:58:52;;;;;;;3.50;2.65;;;25.00;87.80;;;;;;4992638;28;20024;-31
2021/07/08 12:01:19;;;;;;;2.55;2.00;;;25.00;86.90;;;;;;4992194;28;20208;-33
2021/07/08 12:03:51;;;;;;;3.00;2.20;;;25.10;87.10;;;;;;4991516;28;20026;-31
2021/07/08 12:06:26;;;;;;;3.60;2.42;;;25.20;87.30;;;;;;4993093;28;20026;-33
2021/07/08 12:08:56;;;;;;;2.95;2.35;;;25.30;87.20;;;;;;4991624;28;20466;-31
2021/07/08 12:11:28;;;;;;;3.47;3.05;;;25.40;87.00;;;;;;4991424;28;20014;-32
2021/07/08 12:14:07;;;;;;;3.72;2.72;;;25.30;83.70;;;;;;4987023;28;20047;-31
2021/07/08 12:16:38;;;;;;;2.38;1.95;;;25.20;83.20;;;;;;4989100;28;20116;-32
2021/07/08 12:19:25;;;;;;;4.63;2.72;;;25.20;84.90;;;;;;4987605;28;20034;-32
2021/07/08 12:21:52;;;;;;;3.65;2.40;;;25.20;84.70;;;;;;4989830;28;20548;-33
2021/07/08 12:24:23;;;;;;;3.85;2.60;;;25.30;84.80;;;;;;4989624;28;20034;-33
2021/07/08 12:26:49;;;;;;;3.50;2.25;;;25.30;84.20;;;;;;4991989;28;20034;-32
2021/07/08 12:29:24;;;;;;;3.15;2.00;;;25.30;84.00;;;;;;4991425;28;20529;-33
2021/07/08 12:31:57;;;;;;;5.25;2.85;;;25.30;84.50;;;;;;4991508;28;20382;-33
2021/07/08 12:34:46;;;;;;;4.43;2.60;;;25.30;84.40;;;;;;4992162;28;20026;-33
2021/07/08 12:37:19;;;;;;;4.05;2.47;;;25.40;83.20;;;;;;4976270;28;20038;-33
2021/07/08 12:39:59;;;;;;;3.40;2.70;;;25.40;82.60;;;;;;4991391;28;20500;-33
2021/07/08 12:42:28;;;;;;;6.10;3.70;;;25.30;82.60;;;;;;4991574;28;20061;-33
2021/07/08 12:44:58;;;;;;;5.50;3.22;;;25.20;80.80;;;;;;4991801;28;20528;-33
2021/07/08 12:47:24;;;;;;;4.20;2.80;;;25.20;81.30;;;;;;4989645;28;20085;-33
2021/07/08 12:49:51;;;;;;;4.03;2.60;;;25.20;81.60;;;;;;4990698;28;20501;-32
2021/07/08 12:52:18;;;;;;;3.00;2.30;;;25.20;82.20;;;;;;4990525;28;20029;-33
2021/07/08 12:54:43;;;;;;;3.85;2.30;;;25.30;82.40;;;;;;4990064;28;20454;-33
2021/07/08 12:57:19;;;;;;;6.35;2.72;;;25.30;81.50;;;;;;4981281;28;20117;-33